createdAt,value
2016-09-25T00:00:09.175Z,13
2016-09-25T00:00:29.754Z,13
2016-09-25T00:00:50.354Z,13
2016-09-25T00:01:10.967Z,13
2016-09-25T00:01:31.547Z,13
2016-09-25T00:01:52.113Z,13
2016-09-25T00:02:12.698Z,13
2016-09-25T00:02:33.285Z,13
2016-09-25T00:02:53.909Z,13
2016-09-25T00:03:14.494Z,13
2016-09-25T00:03:35.062Z,13
2016-09-25T00:03:55.673Z,13
2016-09-25T00:04:16.270Z,12.9
2016-09-25T00:04:36.839Z,13
2016-09-25T00:04:57.437Z,13
2016-09-25T00:05:18.025Z,12.9
2016-09-25T00:05:38.606Z,13
2016-09-25T00:05:59.198Z,12.9
2016-09-25T00:06:19.785Z,13
2016-09-25T00:06:40.411Z,13
2016-09-25T00:07:00.983Z,13
2016-09-25T00:07:21.568Z,12.9
2016-09-25T00:07:42.163Z,12.9
2016-09-25T00:08:02.742Z,12.9
2016-09-25T00:08:23.334Z,12.9
2016-09-25T00:08:43.923Z,12.9
2016-09-25T00:09:04.506Z,12.9
2016-09-25T00:09:25.092Z,12.9
2016-09-25T00:09:45.684Z,12.9
2016-09-25T00:10:06.261Z,13
2016-09-25T00:10:26.833Z,12.9
2016-09-25T00:10:47.416Z,12.9
2016-09-25T00:11:08.019Z,12.9
2016-09-25T00:11:28.609Z,12.9
2016-09-25T00:11:49.207Z,12.9
2016-09-25T00:12:09.799Z,12.9
2016-09-25T00:12:30.383Z,12.9
2016-09-25T00:12:50.967Z,12.9
2016-09-25T00:13:11.584Z,12.9
2016-09-25T00:13:32.158Z,12.9
2016-09-25T00:13:52.740Z,12.9
2016-09-25T00:14:13.316Z,12.9
2016-09-25T00:14:33.928Z,12.9
2016-09-25T00:14:54.516Z,12.9
2016-09-25T00:15:15.092Z,12.9
2016-09-25T00:15:35.680Z,12.9
2016-09-25T00:15:56.261Z,12.9
2016-09-25T00:16:16.850Z,12.9
2016-09-25T00:16:37.458Z,12.9
2016-09-25T00:16:58.059Z,12.9
2016-09-25T00:17:18.642Z,12.9
2016-09-25T00:17:39.216Z,12.8
2016-09-25T00:17:59.799Z,12.9
2016-09-25T00:18:20.409Z,12.9
2016-09-25T00:18:40.978Z,12.9
2016-09-25T00:19:01.573Z,12.8
2016-09-25T00:19:22.168Z,12.8
2016-09-25T00:19:42.769Z,12.8
2016-09-25T00:20:03.351Z,12.9
2016-09-25T00:20:23.919Z,12.9
2016-09-25T00:20:44.518Z,12.8
2016-09-25T00:21:05.104Z,12.7
2016-09-25T00:21:25.707Z,12.8
2016-09-25T00:21:46.308Z,12.9
2016-09-25T00:22:06.886Z,12.8
2016-09-25T00:22:27.468Z,12.8
2016-09-25T00:22:48.058Z,12.8
2016-09-25T00:23:08.641Z,12.8
2016-09-25T00:23:29.241Z,12.8
2016-09-25T00:23:49.828Z,12.7
2016-09-25T00:24:10.434Z,12.7
2016-09-25T00:24:31.014Z,12.7
2016-09-25T00:24:51.610Z,12.9
2016-09-25T00:25:12.220Z,12.7
2016-09-25T00:25:32.802Z,12.7
2016-09-25T00:25:53.396Z,12.8
2016-09-25T00:26:13.980Z,12.8
2016-09-25T00:26:34.560Z,12.7
2016-09-25T00:26:55.149Z,12.7
2016-09-25T00:27:15.722Z,12.7
2016-09-25T00:27:36.299Z,12.8
2016-09-25T00:27:56.904Z,12.7
2016-09-25T00:28:17.490Z,12.7
2016-09-25T00:28:38.086Z,12.8
2016-09-25T00:28:58.662Z,12.7
2016-09-25T00:29:19.255Z,12.7
2016-09-25T00:29:39.839Z,12.7
2016-09-25T00:30:00.440Z,12.7
2016-09-25T00:30:21.031Z,12.7
2016-09-25T00:30:41.609Z,12.7
2016-09-25T00:31:02.215Z,12.7
2016-09-25T00:31:22.795Z,12.7
2016-09-25T00:31:43.361Z,12.7
2016-09-25T00:32:03.944Z,12.7
2016-09-25T00:32:24.530Z,12.7
2016-09-25T00:32:45.125Z,12.8
2016-09-25T00:33:05.730Z,12.7
2016-09-25T00:33:26.320Z,12.7
2016-09-25T00:33:46.895Z,12.7
2016-09-25T00:34:07.483Z,12.8
2016-09-25T00:34:28.071Z,12.7
2016-09-25T00:34:48.662Z,12.8
2016-09-25T00:35:09.221Z,12.7
2016-09-25T00:35:29.795Z,12.7
2016-09-25T00:35:50.375Z,12.7
2016-09-25T00:36:10.950Z,12.7
2016-09-25T00:36:31.550Z,12.7
2016-09-25T00:36:52.127Z,12.7
2016-09-25T00:37:12.725Z,12.8
2016-09-25T00:37:33.305Z,12.7
2016-09-25T00:37:53.873Z,12.7
2016-09-25T00:38:14.501Z,12.7
2016-09-25T00:38:35.095Z,12.7
2016-09-25T00:38:55.661Z,12.8
2016-09-25T00:39:16.243Z,12.7
2016-09-25T00:39:36.837Z,12.7
2016-09-25T00:39:57.444Z,12.7
2016-09-25T00:40:18.031Z,12.7
2016-09-25T00:40:38.615Z,12.7
2016-09-25T00:40:59.206Z,12.7
2016-09-25T00:41:19.779Z,12.7
2016-09-25T00:41:40.356Z,12.7
2016-09-25T00:42:00.941Z,12.6
2016-09-25T00:42:21.517Z,12.6
2016-09-25T00:42:42.114Z,12.6
2016-09-25T00:43:02.711Z,12.6
2016-09-25T00:43:23.300Z,12.6
2016-09-25T00:43:43.888Z,12.5
2016-09-25T00:44:04.457Z,12.6
2016-09-25T00:44:25.036Z,12.6
2016-09-25T00:44:45.631Z,12.6
2016-09-25T00:45:06.215Z,12.7
2016-09-25T00:45:26.795Z,12.6
2016-09-25T00:45:47.374Z,12.6
2016-09-25T00:46:07.950Z,12.6
2016-09-25T00:46:28.543Z,12.5
2016-09-25T00:46:49.127Z,12.6
2016-09-25T00:47:09.701Z,12.6
2016-09-25T00:47:30.296Z,12.6
2016-09-25T00:47:50.880Z,12.6
2016-09-25T00:48:11.480Z,12.6
2016-09-25T00:48:32.069Z,12.6
2016-09-25T00:48:52.619Z,12.6
2016-09-25T00:49:13.183Z,12.7
2016-09-25T00:49:33.767Z,12.6
2016-09-25T00:49:54.388Z,12.6
2016-09-25T00:50:14.974Z,12.6
2016-09-25T00:50:35.551Z,12.7
2016-09-25T00:50:56.126Z,12.5
2016-09-25T00:51:16.706Z,12.6
2016-09-25T00:51:37.286Z,12.6
2016-09-25T00:51:57.858Z,12.6
2016-09-25T00:52:18.434Z,12.6
2016-09-25T00:52:39.011Z,12.6
2016-09-25T00:52:59.589Z,12.6
2016-09-25T00:53:20.166Z,12.6
2016-09-25T00:53:40.748Z,12.6
2016-09-25T00:54:01.334Z,12.5
2016-09-25T00:54:21.901Z,12.6
2016-09-25T00:54:42.474Z,12.6
2016-09-25T00:55:03.063Z,12.6
2016-09-25T00:55:23.657Z,12.6
2016-09-25T00:55:44.232Z,12.5
2016-09-25T00:56:04.810Z,12.5
2016-09-25T00:56:25.420Z,12.6
2016-09-25T00:56:45.995Z,12.6
2016-09-25T00:57:06.553Z,12.6
2016-09-25T00:57:27.135Z,12.5
2016-09-25T00:57:47.760Z,12.5
2016-09-25T00:58:08.343Z,12.6
2016-09-25T00:58:28.927Z,12.5
2016-09-25T00:58:49.512Z,12.6
2016-09-25T00:59:10.083Z,12.5
2016-09-25T00:59:30.666Z,12.5
2016-09-25T00:59:51.251Z,12.5
2016-09-25T01:00:11.870Z,12.5
2016-09-25T01:00:32.461Z,12.5
2016-09-25T01:00:53.039Z,12.5
2016-09-25T01:01:13.630Z,12.5
2016-09-25T01:01:34.239Z,12.5
2016-09-25T01:01:54.836Z,12.5
2016-09-25T01:02:15.420Z,12.5
2016-09-25T01:02:36.012Z,12.5
2016-09-25T01:02:56.603Z,12.5
2016-09-25T01:03:17.203Z,12.5
2016-09-25T01:03:37.782Z,12.5
2016-09-25T01:03:58.372Z,12.5
2016-09-25T01:04:18.950Z,12.5
2016-09-25T01:04:39.532Z,12.5
2016-09-25T01:05:00.115Z,12.5
2016-09-25T01:05:20.682Z,12.5
2016-09-25T01:05:41.315Z,12.5
2016-09-25T01:06:01.899Z,12.5
2016-09-25T01:06:22.477Z,12.5
2016-09-25T01:06:43.093Z,12.5
2016-09-25T01:07:03.669Z,12.5
2016-09-25T01:07:24.248Z,12.5
2016-09-25T01:07:44.852Z,12.5
2016-09-25T01:08:05.452Z,12.5
2016-09-25T01:08:26.040Z,12.5
2016-09-25T01:08:46.633Z,12.5
2016-09-25T01:09:07.218Z,12.5
2016-09-25T01:09:27.818Z,12.5
2016-09-25T01:09:48.385Z,12.5
2016-09-25T01:10:08.978Z,12.4
2016-09-25T01:10:29.560Z,12.5
2016-09-25T01:10:50.140Z,12.5
2016-09-25T01:11:10.748Z,12.5
2016-09-25T01:11:31.341Z,12.5
2016-09-25T01:11:51.932Z,12.4
2016-09-25T01:12:12.517Z,12.5
2016-09-25T01:12:33.102Z,12.4
2016-09-25T01:12:53.686Z,12.5
2016-09-25T01:13:14.265Z,12.4
2016-09-25T01:13:34.855Z,12.4
2016-09-25T01:13:55.440Z,12.4
2016-09-25T01:14:16.028Z,12.4
2016-09-25T01:14:36.618Z,12.5
2016-09-25T01:14:57.218Z,12.4
2016-09-25T01:15:17.816Z,12.4
2016-09-25T01:15:38.388Z,12.5
2016-09-25T01:15:58.964Z,12.4
2016-09-25T01:16:19.565Z,12.5
2016-09-25T01:16:40.172Z,12.5
2016-09-25T01:17:00.759Z,12.5
2016-09-25T01:17:21.332Z,12.4
2016-09-25T01:17:41.901Z,12.4
2016-09-25T01:18:02.474Z,12.4
2016-09-25T01:18:23.064Z,12.4
2016-09-25T01:18:43.635Z,12.4
2016-09-25T01:19:04.208Z,12.4
2016-09-25T01:19:24.798Z,12.4
2016-09-25T01:19:45.392Z,12.3
2016-09-25T01:20:05.978Z,12.3
2016-09-25T01:20:26.563Z,12.4
2016-09-25T01:20:47.154Z,12.4
2016-09-25T01:21:07.734Z,12.4
2016-09-25T01:21:28.316Z,12.3
2016-09-25T01:21:48.922Z,12.4
2016-09-25T01:22:09.512Z,12.4
2016-09-25T01:22:30.104Z,12.4
2016-09-25T01:22:50.667Z,12.4
2016-09-25T01:23:11.250Z,12.3
2016-09-25T01:23:31.835Z,12.3
2016-09-25T01:23:52.428Z,12.3
2016-09-25T01:24:13.003Z,12.2
2016-09-25T01:24:33.589Z,12.3
2016-09-25T01:24:54.165Z,12.3
2016-09-25T01:25:14.740Z,12.4
2016-09-25T01:25:35.342Z,12.3
2016-09-25T01:25:55.940Z,12.3
2016-09-25T01:26:16.546Z,12.3
2016-09-25T01:26:37.111Z,12.4
2016-09-25T01:26:57.717Z,12.3
2016-09-25T01:27:18.300Z,12.4
2016-09-25T01:27:38.888Z,12.4
2016-09-25T01:27:59.461Z,12.4
2016-09-25T01:28:20.045Z,12.3
2016-09-25T01:28:40.637Z,12.3
2016-09-25T01:29:01.238Z,12.3
2016-09-25T01:29:21.810Z,12.3
2016-09-25T01:29:42.385Z,12.3
2016-09-25T01:30:02.959Z,12.3
2016-09-25T01:30:23.544Z,12.3
2016-09-25T01:30:44.127Z,12.3
2016-09-25T01:31:04.704Z,12.3
2016-09-25T01:31:25.281Z,12.3
2016-09-25T01:31:45.850Z,12.3
2016-09-25T01:32:06.434Z,12.3
2016-09-25T01:32:27.007Z,12.3
2016-09-25T01:32:47.602Z,12.3
2016-09-25T01:33:08.197Z,12.3
2016-09-25T01:33:28.780Z,12.3
2016-09-25T01:33:49.348Z,12.3
2016-09-25T01:34:09.930Z,12.3
2016-09-25T01:34:30.531Z,12.2
2016-09-25T01:34:51.133Z,12.3
2016-09-25T01:35:11.721Z,12.2
2016-09-25T01:35:32.332Z,12.3
2016-09-25T01:35:52.912Z,12.3
2016-09-25T01:36:13.497Z,12.3
2016-09-25T01:36:34.085Z,12.2
2016-09-25T01:36:54.702Z,12.2
2016-09-25T01:37:15.293Z,12.2
2016-09-25T01:37:35.890Z,12.3
2016-09-25T01:37:56.468Z,12.2
2016-09-25T01:38:17.064Z,12.3
2016-09-25T01:38:37.700Z,12.3
2016-09-25T01:38:58.300Z,12.2
2016-09-25T01:39:18.877Z,12.2
2016-09-25T01:39:39.468Z,12.3
2016-09-25T01:40:00.060Z,12.2
2016-09-25T01:40:20.652Z,12.3
2016-09-25T01:40:41.247Z,12.3
2016-09-25T01:41:01.838Z,12.3
2016-09-25T01:41:22.429Z,12.3
2016-09-25T01:41:43.004Z,12.3
2016-09-25T01:42:03.619Z,12.3
2016-09-25T01:42:24.212Z,12.3
2016-09-25T01:42:44.824Z,12.3
2016-09-25T01:43:05.408Z,12.3
2016-09-25T01:43:26.006Z,12.3
2016-09-25T01:43:46.609Z,12.3
2016-09-25T01:44:07.201Z,12.3
2016-09-25T01:44:27.819Z,12.3
2016-09-25T01:44:48.417Z,12.3
2016-09-25T01:45:09.048Z,12.3
2016-09-25T01:45:29.694Z,12.3
2016-09-25T01:45:50.485Z,12.3
2016-09-25T01:46:11.238Z,12.4
2016-09-25T01:46:31.843Z,12.3
2016-09-25T01:46:52.458Z,12.3
2016-09-25T01:47:13.048Z,12.3
2016-09-25T01:47:33.643Z,12.3
2016-09-25T01:47:54.329Z,12.3
2016-09-25T01:48:15.030Z,12.4
2016-09-25T01:48:36.619Z,12.5
2016-09-25T01:48:57.220Z,12.4
2016-09-25T01:49:17.810Z,12.4
2016-09-25T01:49:38.627Z,12.3
2016-09-25T01:49:59.927Z,12.3
2016-09-25T01:50:20.665Z,12.4
2016-09-25T01:50:41.637Z,12.3
2016-09-25T01:51:02.212Z,12.3
2016-09-25T01:51:22.836Z,12.3
2016-09-25T01:51:43.462Z,12.3
2016-09-25T01:52:04.091Z,12.3
2016-09-25T01:52:24.682Z,12.3
2016-09-25T01:52:45.282Z,12.3
2016-09-25T01:53:05.867Z,12.2
2016-09-25T01:53:26.494Z,12.3
2016-09-25T01:53:47.114Z,12.3
2016-09-25T01:54:07.721Z,12.3
2016-09-25T01:54:28.322Z,12.3
2016-09-25T01:54:48.925Z,12.3
2016-09-25T01:55:09.524Z,12.2
2016-09-25T01:55:30.124Z,12.3
2016-09-25T01:55:50.729Z,12.3
2016-09-25T01:56:11.301Z,12.3
2016-09-25T01:56:31.918Z,12.3
2016-09-25T01:56:52.520Z,12.3
2016-09-25T01:57:13.119Z,12.3
2016-09-25T01:57:33.814Z,12.3
2016-09-25T01:57:54.404Z,12.3
2016-09-25T01:58:15.007Z,12.3
2016-09-25T01:58:35.625Z,12.2
2016-09-25T01:58:56.237Z,12.2
2016-09-25T01:59:16.838Z,12.2
2016-09-25T01:59:37.421Z,12.2
2016-09-25T01:59:58.011Z,12.2
2016-09-25T02:00:18.628Z,12.2
2016-09-25T02:00:39.215Z,12.2
2016-09-25T02:00:59.799Z,12.2
2016-09-25T02:01:20.385Z,12.2
2016-09-25T02:01:40.998Z,12.2
2016-09-25T02:02:01.593Z,12.2
2016-09-25T02:02:22.197Z,12.2
2016-09-25T02:02:42.792Z,12.2
2016-09-25T02:03:03.386Z,12.2
2016-09-25T02:03:23.991Z,12.2
2016-09-25T02:03:44.604Z,12.2
2016-09-25T02:04:05.194Z,12.2
2016-09-25T02:04:25.776Z,12.2
2016-09-25T02:04:46.393Z,12.2
2016-09-25T02:05:06.982Z,12.1
2016-09-25T02:05:27.576Z,12.2
2016-09-25T02:05:48.169Z,12.3
2016-09-25T02:06:08.777Z,12.2
2016-09-25T02:06:29.361Z,12.2
2016-09-25T02:06:49.974Z,12.1
2016-09-25T02:07:10.563Z,12.2
2016-09-25T02:07:31.154Z,12.2
2016-09-25T02:07:51.736Z,12.2
2016-09-25T02:08:12.317Z,12.1
2016-09-25T02:08:32.914Z,12.2
2016-09-25T02:08:53.533Z,12.1
2016-09-25T02:09:14.132Z,12.1
2016-09-25T02:09:34.722Z,12.1
2016-09-25T02:09:55.319Z,12.1
2016-09-25T02:10:15.920Z,12.1
2016-09-25T02:10:36.521Z,12.1
2016-09-25T02:10:57.106Z,12.2
2016-09-25T02:11:17.687Z,12.1
2016-09-25T02:11:38.270Z,12.1
2016-09-25T02:11:58.866Z,12.1
2016-09-25T02:12:19.455Z,12.2
2016-09-25T02:12:40.084Z,12.1
2016-09-25T02:13:00.673Z,12.2
2016-09-25T02:13:21.281Z,12.1
2016-09-25T02:13:41.875Z,12.1
2016-09-25T02:14:02.477Z,12.1
2016-09-25T02:14:23.084Z,12.1
2016-09-25T02:14:43.659Z,12.2
2016-09-25T02:15:04.262Z,12.1
2016-09-25T02:15:24.864Z,12.2
2016-09-25T02:15:45.466Z,12.1
2016-09-25T02:16:06.070Z,12.1
2016-09-25T02:16:26.668Z,12.1
2016-09-25T02:16:47.273Z,12.1
2016-09-25T02:17:07.875Z,12.2
2016-09-25T02:17:28.489Z,12.2
2016-09-25T02:17:49.077Z,12.2
2016-09-25T02:18:09.676Z,12.1
2016-09-25T02:18:30.287Z,12.1
2016-09-25T02:18:50.875Z,12.2
2016-09-25T02:19:11.465Z,12
2016-09-25T02:19:32.061Z,12.1
2016-09-25T02:19:52.660Z,12
2016-09-25T02:20:13.234Z,12
2016-09-25T02:20:33.816Z,12
2016-09-25T02:20:54.447Z,12.1
2016-09-25T02:21:15.050Z,12
2016-09-25T02:21:35.634Z,12
2016-09-25T02:21:56.213Z,12.1
2016-09-25T02:22:16.807Z,12
2016-09-25T02:22:37.404Z,12
2016-09-25T02:22:58.023Z,12
2016-09-25T02:23:18.607Z,12
2016-09-25T02:23:39.238Z,12
2016-09-25T02:23:59.831Z,12
2016-09-25T02:24:20.446Z,12
2016-09-25T02:24:41.040Z,12
2016-09-25T02:25:01.620Z,12
2016-09-25T02:25:22.223Z,12
2016-09-25T02:25:42.827Z,11.9
2016-09-25T02:26:03.413Z,12
2016-09-25T02:26:24.007Z,12
2016-09-25T02:26:44.592Z,12
2016-09-25T02:27:05.200Z,12
2016-09-25T02:27:25.812Z,12
2016-09-25T02:27:46.418Z,12
2016-09-25T02:28:07.001Z,12
2016-09-25T02:28:27.597Z,12
2016-09-25T02:28:48.175Z,12
2016-09-25T02:29:08.787Z,12
2016-09-25T02:29:29.393Z,12
2016-09-25T02:29:50.022Z,12.1
2016-09-25T02:30:10.634Z,12
2016-09-25T02:30:31.220Z,12
2016-09-25T02:30:53.490Z,12
2016-09-25T02:31:14.115Z,12
2016-09-25T02:31:34.706Z,12
2016-09-25T02:31:55.311Z,12
2016-09-25T02:32:15.903Z,12
2016-09-25T02:32:36.482Z,12
2016-09-25T02:32:57.078Z,12
2016-09-25T02:33:17.664Z,12
2016-09-25T02:33:38.262Z,11.9
2016-09-25T02:33:58.875Z,11.9
2016-09-25T02:34:19.468Z,11.9
2016-09-25T02:34:40.053Z,12
2016-09-25T02:35:00.674Z,11.9
2016-09-25T02:35:21.267Z,11.9
2016-09-25T02:35:41.859Z,11.9
2016-09-25T02:36:02.476Z,11.9
2016-09-25T02:36:23.059Z,12
2016-09-25T02:36:43.641Z,11.9
2016-09-25T02:37:04.230Z,11.9
2016-09-25T02:37:24.858Z,11.9
2016-09-25T02:37:45.471Z,12
2016-09-25T02:38:06.065Z,11.9
2016-09-25T02:38:26.655Z,11.9
2016-09-25T02:38:47.245Z,11.9
2016-09-25T02:39:07.832Z,11.9
2016-09-25T02:39:28.407Z,11.9
2016-09-25T02:39:48.984Z,11.9
2016-09-25T02:40:09.567Z,11.9
2016-09-25T02:40:30.153Z,11.9
2016-09-25T02:40:50.754Z,11.9
2016-09-25T02:41:11.349Z,11.9
2016-09-25T02:41:31.942Z,11.9
2016-09-25T02:41:52.538Z,11.9
2016-09-25T02:42:13.154Z,12
2016-09-25T02:42:33.758Z,11.9
2016-09-25T02:42:54.343Z,11.9
2016-09-25T02:43:14.923Z,11.9
2016-09-25T02:43:35.522Z,11.9
2016-09-25T02:43:56.111Z,12
2016-09-25T02:44:16.714Z,11.9
2016-09-25T02:44:37.295Z,11.9
2016-09-25T02:44:57.865Z,11.9
2016-09-25T02:45:18.475Z,11.9
2016-09-25T02:45:39.077Z,11.9
2016-09-25T02:45:59.660Z,11.9
2016-09-25T02:46:20.269Z,11.9
2016-09-25T02:46:40.847Z,11.9
2016-09-25T02:47:01.424Z,11.9
2016-09-25T02:47:22.036Z,11.9
2016-09-25T02:47:42.650Z,11.8
2016-09-25T02:48:03.267Z,11.8
2016-09-25T02:48:23.841Z,11.9
2016-09-25T02:48:44.438Z,11.8
2016-09-25T02:49:05.041Z,11.8
2016-09-25T02:49:25.663Z,11.9
2016-09-25T02:49:46.276Z,11.8
2016-09-25T02:50:06.884Z,11.9
2016-09-25T02:50:27.472Z,11.9
2016-09-25T02:50:48.048Z,11.8
2016-09-25T02:51:08.658Z,11.9
2016-09-25T02:51:29.269Z,11.9
2016-09-25T02:51:49.863Z,11.8
2016-09-25T02:52:10.457Z,11.8
2016-09-25T02:52:31.054Z,11.8
2016-09-25T02:52:51.645Z,11.8
2016-09-25T02:53:12.236Z,11.8
2016-09-25T02:53:32.844Z,11.8
2016-09-25T02:53:53.413Z,11.9
2016-09-25T02:54:13.988Z,11.8
2016-09-25T02:54:34.605Z,11.8
2016-09-25T02:54:55.195Z,11.8
2016-09-25T02:55:15.813Z,11.8
2016-09-25T02:55:36.407Z,11.8
2016-09-25T02:55:56.985Z,11.8
2016-09-25T02:56:17.597Z,11.8
2016-09-25T02:56:38.179Z,11.8
2016-09-25T02:56:58.791Z,11.8
2016-09-25T02:57:19.407Z,11.8
2016-09-25T02:57:40.005Z,11.9
2016-09-25T02:58:00.605Z,11.8
2016-09-25T02:58:21.222Z,11.8
2016-09-25T02:58:41.825Z,11.8
2016-09-25T02:59:02.418Z,11.8
2016-09-25T02:59:23.015Z,11.8
2016-09-25T02:59:43.601Z,11.8
2016-09-25T03:00:04.188Z,11.9
2016-09-25T03:00:24.802Z,11.8
2016-09-25T03:00:45.420Z,11.9
2016-09-25T03:01:06.038Z,11.8
2016-09-25T03:01:26.633Z,11.8
2016-09-25T03:01:47.225Z,11.8
2016-09-25T03:02:07.833Z,11.8
2016-09-25T03:02:28.434Z,11.8
2016-09-25T03:02:49.039Z,11.8
2016-09-25T03:03:09.651Z,11.8
2016-09-25T03:03:30.264Z,11.8
2016-09-25T03:03:50.864Z,11.8
2016-09-25T03:04:11.458Z,11.8
2016-09-25T03:04:32.070Z,11.8
2016-09-25T03:04:52.649Z,11.8
2016-09-25T03:05:13.235Z,11.8
2016-09-25T03:05:33.808Z,11.8
2016-09-25T03:05:54.456Z,11.8
2016-09-25T03:06:15.057Z,11.7
2016-09-25T03:06:35.655Z,11.8
2016-09-25T03:06:56.250Z,11.7
2016-09-25T03:07:16.855Z,11.7
2016-09-25T03:07:37.454Z,11.8
2016-09-25T03:07:58.086Z,11.8
2016-09-25T03:08:18.674Z,11.8
2016-09-25T03:08:39.280Z,11.8
2016-09-25T03:08:59.879Z,11.7
2016-09-25T03:09:20.494Z,11.7
2016-09-25T03:09:41.111Z,11.8
2016-09-25T03:10:01.686Z,11.7
2016-09-25T03:10:22.286Z,11.8
2016-09-25T03:10:42.901Z,11.7
2016-09-25T03:11:03.504Z,11.7
2016-09-25T03:11:24.113Z,11.8
2016-09-25T03:11:44.722Z,11.8
2016-09-25T03:12:05.304Z,11.8
2016-09-25T03:12:25.891Z,11.8
2016-09-25T03:12:46.480Z,11.7
2016-09-25T03:13:07.056Z,11.7
2016-09-25T03:13:27.669Z,11.8
2016-09-25T03:13:48.269Z,11.7
2016-09-25T03:14:08.875Z,11.8
2016-09-25T03:14:29.480Z,11.7
2016-09-25T03:14:50.102Z,11.8
2016-09-25T03:15:10.745Z,11.8
2016-09-25T03:15:31.330Z,11.7
2016-09-25T03:15:51.930Z,11.7
2016-09-25T03:16:12.517Z,11.7
2016-09-25T03:16:33.107Z,11.8
2016-09-25T03:16:53.705Z,11.7
2016-09-25T03:17:14.337Z,11.7
2016-09-25T03:17:34.939Z,11.8
2016-09-25T03:17:55.519Z,11.7
2016-09-25T03:18:16.140Z,11.7
2016-09-25T03:18:36.727Z,11.6
2016-09-25T03:18:57.323Z,11.6
2016-09-25T03:19:17.950Z,11.8
2016-09-25T03:19:38.570Z,11.7
2016-09-25T03:19:59.185Z,11.6
2016-09-25T03:20:19.775Z,11.7
2016-09-25T03:20:40.384Z,11.8
2016-09-25T03:21:00.975Z,11.7
2016-09-25T03:21:21.575Z,11.8
2016-09-25T03:21:42.165Z,11.7
2016-09-25T03:22:02.751Z,11.7
2016-09-25T03:22:23.353Z,11.7
2016-09-25T03:22:43.934Z,11.6
2016-09-25T03:23:04.550Z,11.7
2016-09-25T03:23:25.148Z,11.7
2016-09-25T03:23:45.713Z,11.7
2016-09-25T03:24:06.309Z,11.6
2016-09-25T03:24:26.927Z,11.7
2016-09-25T03:24:47.541Z,11.7
2016-09-25T03:25:08.155Z,11.7
2016-09-25T03:25:28.748Z,11.6
2016-09-25T03:25:49.339Z,11.7
2016-09-25T03:26:09.940Z,11.6
2016-09-25T03:26:30.540Z,11.6
2016-09-25T03:26:51.140Z,11.7
2016-09-25T03:27:11.730Z,11.6
2016-09-25T03:27:32.307Z,11.7
2016-09-25T03:27:52.901Z,11.6
2016-09-25T03:28:13.522Z,11.7
2016-09-25T03:28:34.112Z,11.6
2016-09-25T03:28:54.749Z,11.7
2016-09-25T03:29:15.355Z,11.6
2016-09-25T03:29:35.988Z,11.6
2016-09-25T03:29:56.579Z,11.5
2016-09-25T03:30:17.180Z,11.5
2016-09-25T03:30:37.771Z,11.5
2016-09-25T03:30:58.360Z,11.6
2016-09-25T03:31:18.966Z,11.6
2016-09-25T03:31:39.558Z,11.6
2016-09-25T03:32:00.125Z,11.6
2016-09-25T03:32:20.721Z,11.6
2016-09-25T03:32:41.313Z,11.6
2016-09-25T03:33:01.941Z,11.6
2016-09-25T03:33:22.549Z,11.5
2016-09-25T03:33:43.133Z,11.6
2016-09-25T03:34:03.715Z,11.5
2016-09-25T03:34:24.325Z,11.6
2016-09-25T03:34:44.906Z,11.6
2016-09-25T03:35:05.500Z,11.5
2016-09-25T03:35:26.088Z,11.6
2016-09-25T03:35:46.707Z,11.6
2016-09-25T03:36:07.316Z,11.5
2016-09-25T03:36:27.908Z,11.6
2016-09-25T03:36:48.530Z,11.6
2016-09-25T03:37:09.109Z,11.5
2016-09-25T03:37:29.702Z,11.6
2016-09-25T03:37:50.319Z,11.5
2016-09-25T03:38:10.901Z,11.5
2016-09-25T03:38:31.499Z,11.5
2016-09-25T03:38:52.091Z,11.6
2016-09-25T03:39:12.699Z,11.6
2016-09-25T03:39:33.318Z,11.5
2016-09-25T03:39:53.919Z,11.5
2016-09-25T03:40:14.535Z,11.4
2016-09-25T03:40:35.110Z,11.4
2016-09-25T03:40:55.721Z,11.4
2016-09-25T03:41:16.324Z,11.5
2016-09-25T03:41:36.926Z,11.4
2016-09-25T03:41:57.535Z,11.5
2016-09-25T03:42:18.104Z,11.5
2016-09-25T03:42:38.702Z,11.4
2016-09-25T03:42:59.304Z,11.4
2016-09-25T03:43:19.917Z,11.4
2016-09-25T03:43:40.515Z,11.5
2016-09-25T03:44:01.101Z,11.5
2016-09-25T03:44:21.695Z,11.5
2016-09-25T03:44:42.288Z,11.4
2016-09-25T03:45:02.903Z,11.4
2016-09-25T03:45:23.652Z,11.5
2016-09-25T03:45:44.254Z,11.5
2016-09-25T03:46:04.860Z,11.5
2016-09-25T03:46:25.479Z,11.6
2016-09-25T03:46:46.061Z,11.5
2016-09-25T03:47:06.693Z,11.5
2016-09-25T03:47:27.295Z,11.5
2016-09-25T03:47:47.894Z,11.4
2016-09-25T03:48:08.497Z,11.5
2016-09-25T03:48:29.084Z,11.4
2016-09-25T03:48:49.701Z,11.5
2016-09-25T03:49:10.322Z,11.4
2016-09-25T03:49:30.937Z,11.5
2016-09-25T03:49:51.537Z,11.5
2016-09-25T03:50:12.144Z,11.5
2016-09-25T03:50:32.742Z,11.4
2016-09-25T03:50:53.325Z,11.4
2016-09-25T03:51:13.941Z,11.4
2016-09-25T03:51:34.534Z,11.5
2016-09-25T03:51:55.142Z,11.5
2016-09-25T03:52:15.739Z,11.5
2016-09-25T03:52:36.339Z,11.4
2016-09-25T03:52:56.930Z,11.4
2016-09-25T03:53:17.534Z,11.5
2016-09-25T03:53:38.131Z,11.4
2016-09-25T03:53:58.734Z,11.4
2016-09-25T03:54:19.346Z,11.4
2016-09-25T03:54:39.947Z,11.4
2016-09-25T03:55:00.514Z,11.5
2016-09-25T03:55:21.117Z,11.5
2016-09-25T03:55:41.716Z,11.4
2016-09-25T03:56:02.305Z,11.6
2016-09-25T03:56:22.906Z,11.5
2016-09-25T03:56:43.496Z,11.5
2016-09-25T03:57:04.083Z,11.5
2016-09-25T03:57:24.696Z,11.4
2016-09-25T03:57:45.378Z,11.4
2016-09-25T03:58:05.981Z,11.4
2016-09-25T03:58:26.588Z,11.5
2016-09-25T03:58:47.195Z,11.4
2016-09-25T03:59:07.818Z,11.5
2016-09-25T03:59:28.421Z,11.5
2016-09-25T03:59:49.018Z,11.4
2016-09-25T04:00:09.630Z,11.5
2016-09-25T04:00:30.247Z,11.5
2016-09-25T04:00:50.848Z,11.4
2016-09-25T04:01:11.429Z,11.4
2016-09-25T04:01:32.032Z,11.4
2016-09-25T04:01:52.664Z,11.5
2016-09-25T04:02:13.326Z,11.4
2016-09-25T04:02:33.947Z,11.5
2016-09-25T04:02:54.544Z,11.5
2016-09-25T04:03:15.140Z,11.4
2016-09-25T04:03:35.722Z,11.4
2016-09-25T04:03:56.342Z,11.4
2016-09-25T04:04:16.949Z,11.5
2016-09-25T04:04:37.557Z,11.4
2016-09-25T04:04:58.186Z,11.4
2016-09-25T04:05:18.781Z,11.4
2016-09-25T04:05:39.400Z,11.4
2016-09-25T04:05:59.993Z,11.4
2016-09-25T04:06:20.593Z,11.4
2016-09-25T04:06:41.196Z,11.4
2016-09-25T04:07:01.792Z,11.4
2016-09-25T04:07:22.394Z,11.5
2016-09-25T04:07:42.999Z,11.4
2016-09-25T04:08:03.587Z,11.4
2016-09-25T04:08:24.188Z,11.3
2016-09-25T04:08:44.803Z,11.5
2016-09-25T04:09:05.401Z,11.4
2016-09-25T04:09:25.982Z,11.4
2016-09-25T04:09:46.564Z,11.5
2016-09-25T04:10:07.175Z,11.5
2016-09-25T04:10:27.778Z,11.5
2016-09-25T04:10:48.395Z,11.3
2016-09-25T04:11:09.004Z,11.4
2016-09-25T04:11:29.596Z,11.4
2016-09-25T04:11:50.200Z,11.4
2016-09-25T04:12:10.799Z,11.3
2016-09-25T04:12:31.412Z,11.3
2016-09-25T04:12:52.025Z,11.4
2016-09-25T04:13:12.625Z,11.4
2016-09-25T04:13:33.214Z,11.3
2016-09-25T04:13:53.829Z,11.3
2016-09-25T04:14:14.426Z,11.5
2016-09-25T04:14:35.026Z,11.4
2016-09-25T04:14:55.630Z,11.4
2016-09-25T04:15:16.228Z,11.4
2016-09-25T04:15:36.838Z,11.4
2016-09-25T04:15:57.447Z,11.4
2016-09-25T04:16:18.086Z,11.3
2016-09-25T04:16:38.680Z,11.4
2016-09-25T04:16:59.286Z,11.3
2016-09-25T04:17:19.863Z,11.4
2016-09-25T04:17:40.508Z,11.4
2016-09-25T04:18:01.077Z,11.3
2016-09-25T04:18:21.676Z,11.4
2016-09-25T04:18:42.278Z,11.4
2016-09-25T04:19:02.863Z,11.4
2016-09-25T04:19:23.453Z,11.4
2016-09-25T04:19:44.061Z,11.3
2016-09-25T04:20:04.663Z,11.3
2016-09-25T04:20:25.265Z,11.4
2016-09-25T04:20:45.858Z,11.4
2016-09-25T04:21:06.448Z,11.3
2016-09-25T04:21:27.049Z,11.3
2016-09-25T04:21:47.642Z,11.3
2016-09-25T04:22:08.266Z,11.3
2016-09-25T04:22:28.883Z,11.4
2016-09-25T04:22:49.499Z,11.3
2016-09-25T04:23:10.093Z,11.4
2016-09-25T04:23:30.695Z,11.4
2016-09-25T04:23:51.300Z,11.2
2016-09-25T04:24:11.906Z,11.3
2016-09-25T04:24:32.501Z,11.3
2016-09-25T04:24:53.094Z,11.3
2016-09-25T04:25:13.685Z,11.4
2016-09-25T04:25:34.285Z,11.4
2016-09-25T04:25:54.880Z,11.4
2016-09-25T04:26:15.511Z,11.4
2016-09-25T04:26:36.098Z,11.4
2016-09-25T04:26:56.692Z,11.4
2016-09-25T04:27:17.274Z,11.3
2016-09-25T04:27:37.872Z,11.4
2016-09-25T04:27:58.469Z,11.3
2016-09-25T04:28:19.043Z,11.4
2016-09-25T04:28:39.636Z,11.4
2016-09-25T04:29:00.260Z,11.4
2016-09-25T04:29:20.851Z,11.4
2016-09-25T04:29:41.452Z,11.4
2016-09-25T04:30:02.044Z,11.4
2016-09-25T04:30:22.662Z,11.4
2016-09-25T04:30:43.268Z,11.4
2016-09-25T04:31:03.872Z,11.3
2016-09-25T04:31:24.489Z,11.4
2016-09-25T04:31:45.086Z,11.3
2016-09-25T04:32:05.685Z,11.4
2016-09-25T04:32:26.294Z,11.4
2016-09-25T04:32:46.890Z,11.4
2016-09-25T04:33:07.487Z,11.4
2016-09-25T04:33:28.119Z,11.4
2016-09-25T04:33:48.709Z,11.4
2016-09-25T04:34:09.316Z,11.4
2016-09-25T04:34:29.906Z,11.4
2016-09-25T04:34:50.494Z,11.4
2016-09-25T04:35:11.083Z,11.3
2016-09-25T04:35:31.690Z,11.4